createdAt,value
2023-11-30T00:00:17.568Z,45.60
2023-11-30T00:02:48.384Z,53.50
2023-11-30T00:05:22.790Z,52.30
2023-11-30T00:07:54.577Z,45.80
2023-11-30T00:10:25.390Z,52.80
2023-11-30T00:12:56.554Z,51.70
2023-11-30T00:15:27.426Z,47.40
2023-11-30T00:17:58.398Z,58.20
2023-11-30T00:20:29.309Z,54.20
2023-11-30T00:23:00.073Z,51.60
2023-11-30T00:25:30.837Z,55.10
2023-11-30T00:28:01.684Z,58.80
2023-11-30T00:30:32.566Z,59.80
2023-11-30T00:33:03.645Z,45.80
2023-11-30T00:35:34.529Z,60.40
2023-11-30T00:38:05.518Z,63.60
2023-11-30T00:40:38.964Z,49.10
2023-11-30T00:43:10.032Z,46.70
2023-11-30T00:45:40.944Z,57.60
2023-11-30T00:48:11.899Z,53.30
2023-11-30T00:50:42.861Z,57.50
2023-11-30T00:53:13.745Z,51.90
2023-11-30T00:55:44.533Z,48.60
2023-11-30T00:58:15.329Z,62.50
2023-11-30T01:00:46.641Z,55.70
2023-11-30T01:03:17.471Z,54.80
2023-11-30T01:05:48.322Z,58.40
2023-11-30T01:08:19.107Z,63.20
2023-11-30T01:10:49.943Z,64.40
2023-11-30T01:13:20.701Z,60.90
2023-11-30T01:15:51.693Z,61.50
2023-11-30T01:18:22.593Z,53.80
2023-11-30T01:20:53.417Z,49.60
2023-11-30T01:23:24.400Z,58.50
2023-11-30T01:25:55.139Z,55.80
2023-11-30T01:28:25.995Z,49.90
2023-11-30T01:30:56.729Z,62.60
2023-11-30T01:33:27.639Z,54.70
2023-11-30T01:35:58.523Z,51.60
2023-11-30T01:38:30.202Z,58.50
2023-11-30T01:41:00.969Z,56.50
2023-11-30T01:43:31.769Z,60.00
2023-11-30T01:46:04.311Z,66.10
2023-11-30T01:48:35.753Z,55.10
2023-11-30T01:51:09.366Z,62.10
2023-11-30T01:53:40.897Z,53.10
2023-11-30T01:56:13.382Z,57.10
2023-11-30T01:58:45.074Z,60.00
2023-11-30T02:01:16.029Z,63.60
2023-11-30T02:03:47.553Z,64.50
2023-11-30T02:06:20.333Z,54.60
2023-11-30T02:08:51.364Z,56.30
2023-11-30T02:11:22.295Z,55.50
2023-11-30T02:13:53.438Z,48.60
2023-11-30T02:16:24.318Z,58.30
2023-11-30T02:18:55.236Z,55.90
2023-11-30T02:21:26.240Z,68.20
2023-11-30T02:23:57.112Z,58.50
2023-11-30T02:26:27.903Z,52.30
2023-11-30T02:28:58.622Z,60.20
2023-11-30T02:31:29.436Z,63.70
2023-11-30T02:34:00.329Z,53.00
2023-11-30T02:36:31.168Z,57.90
2023-11-30T02:39:02.053Z,70.30
2023-11-30T02:41:32.843Z,56.70
2023-11-30T02:44:03.686Z,73.90
2023-11-30T02:46:34.549Z,59.10
2023-11-30T02:49:05.317Z,55.80
2023-11-30T02:51:36.851Z,55.80
2023-11-30T02:54:07.684Z,50.20
2023-11-30T02:56:42.878Z,48.30
2023-11-30T02:59:13.608Z,53.30
2023-11-30T03:01:48.528Z,64.30
2023-11-30T03:04:20.161Z,50.30
2023-11-30T03:06:52.800Z,55.80
2023-11-30T03:09:23.695Z,49.30
2023-11-30T03:11:55.117Z,58.40
2023-11-30T03:14:25.842Z,61.10
2023-11-30T03:16:57.753Z,60.90
2023-11-30T03:19:29.001Z,54.70
2023-11-30T03:21:59.791Z,55.90
2023-11-30T03:24:31.698Z,50.40
2023-11-30T03:27:02.524Z,61.30
2023-11-30T03:29:33.245Z,56.10
2023-11-30T03:32:04.011Z,54.30
2023-11-30T03:34:34.880Z,71.40
2023-11-30T03:37:05.871Z,60.40
2023-11-30T03:39:36.781Z,56.90
2023-11-30T03:42:08.146Z,53.70
2023-11-30T03:44:38.918Z,51.00
2023-11-30T03:47:09.721Z,64.00
2023-11-30T03:49:40.971Z,64.80
2023-11-30T03:52:11.775Z,63.70
2023-11-30T03:54:42.779Z,64.40
2023-11-30T03:57:13.823Z,66.10
2023-11-30T03:59:44.667Z,70.80
2023-11-30T04:02:15.552Z,50.50
2023-11-30T04:04:46.295Z,49.70
2023-11-30T04:07:17.127Z,55.00
2023-11-30T04:09:48.741Z,55.20
2023-11-30T04:12:19.549Z,46.60
2023-11-30T04:14:50.289Z,58.90
2023-11-30T04:17:21.059Z,59.70
2023-11-30T04:19:51.858Z,53.10
2023-11-30T04:22:23.025Z,54.20
2023-11-30T04:24:54.815Z,53.00
2023-11-30T04:27:25.670Z,53.90
2023-11-30T04:29:56.569Z,66.80
2023-11-30T04:32:27.865Z,58.90
2023-11-30T04:34:58.642Z,57.60
2023-11-30T04:37:29.482Z,53.80
2023-11-30T04:40:00.473Z,41.30
2023-11-30T04:42:31.797Z,61.60
2023-11-30T04:45:04.031Z,48.60
2023-11-30T04:47:34.849Z,54.30
2023-11-30T04:50:07.264Z,45.00
2023-11-30T04:52:38.033Z,48.50
2023-11-30T04:55:10.849Z,52.40
2023-11-30T04:57:41.617Z,46.70
2023-11-30T05:00:14.544Z,55.10
2023-11-30T05:02:56.422Z,47.80
2023-11-30T05:05:27.544Z,51.80
2023-11-30T05:07:58.291Z,56.70
2023-11-30T05:10:28.978Z,51.80
2023-11-30T05:12:59.889Z,52.80
2023-11-30T05:15:30.731Z,49.50
2023-11-30T05:18:01.689Z,44.70
2023-11-30T05:20:32.449Z,59.60
2023-11-30T05:23:03.242Z,51.40
2023-11-30T05:25:34.496Z,52.90
2023-11-30T05:28:07.732Z,47.60
2023-11-30T05:30:38.685Z,50.00
2023-11-30T05:33:13.619Z,60.30
2023-11-30T05:35:46.188Z,51.90
2023-11-30T05:38:17.011Z,53.60
2023-11-30T05:40:48.267Z,51.30
2023-11-30T05:45:52.752Z,59.40
2023-11-30T05:48:23.881Z,47.20
2023-11-30T05:50:54.826Z,42.40
2023-11-30T05:53:25.641Z,48.30
2023-11-30T05:55:56.621Z,54.80
2023-11-30T05:58:29.775Z,49.60
2023-11-30T06:01:00.637Z,48.50
2023-11-30T06:03:32.064Z,50.80
2023-11-30T06:06:03.258Z,44.70
2023-11-30T06:08:34.111Z,41.60
2023-11-30T06:11:05.775Z,45.90
2023-11-30T06:13:36.806Z,52.80
2023-11-30T06:16:08.950Z,46.70
2023-11-30T06:18:39.754Z,54.40
2023-11-30T06:21:12.886Z,49.70
2023-11-30T06:23:45.168Z,53.20
2023-11-30T06:26:18.778Z,47.80
2023-11-30T06:28:49.597Z,49.30
2023-11-30T06:31:20.470Z,43.50
2023-11-30T06:33:51.940Z,51.80
2023-11-30T06:36:23.014Z,48.70
2023-11-30T06:38:54.155Z,47.50
2023-11-30T06:41:24.941Z,53.90
2023-11-30T06:43:56.209Z,43.30
2023-11-30T06:46:27.160Z,61.60
2023-11-30T06:48:58.612Z,48.00
2023-11-30T06:51:29.592Z,47.20
2023-11-30T06:54:00.662Z,48.50
2023-11-30T06:56:31.628Z,48.20
2023-11-30T06:59:02.693Z,41.40
2023-11-30T07:01:34.029Z,40.70
2023-11-30T07:04:09.697Z,40.60
2023-11-30T07:06:41.711Z,41.40
2023-11-30T07:09:13.694Z,42.80
2023-11-30T07:11:44.653Z,47.30
2023-11-30T07:14:15.417Z,40.70
2023-11-30T07:16:46.864Z,38.40
2023-11-30T07:19:20.190Z,51.20
2023-11-30T07:21:52.638Z,43.60
2023-11-30T07:24:23.438Z,42.70
2023-11-30T07:26:54.274Z,43.00
2023-11-30T07:29:27.134Z,47.60
2023-11-30T07:31:59.552Z,49.80
2023-11-30T07:34:30.589Z,50.00
2023-11-30T07:37:02.623Z,47.30
2023-11-30T07:39:33.418Z,46.10
2023-11-30T07:42:07.576Z,49.90
2023-11-30T07:44:39.819Z,53.20
2023-11-30T07:47:12.237Z,49.80
2023-11-30T07:49:43.192Z,43.20
2023-11-30T07:52:14.639Z,51.30
2023-11-30T07:54:45.604Z,46.20
2023-11-30T07:57:19.796Z,54.40
2023-11-30T07:59:50.858Z,50.50
2023-11-30T08:02:23.105Z,48.40
2023-11-30T08:04:54.168Z,44.40
2023-11-30T08:07:25.101Z,46.00
2023-11-30T08:09:55.894Z,48.00
2023-11-30T08:12:27.036Z,44.40
2023-11-30T08:14:57.879Z,52.50
2023-11-30T08:17:29.497Z,57.80
2023-11-30T08:20:03.955Z,50.80
2023-11-30T08:22:35.022Z,54.60
2023-11-30T08:25:06.785Z,56.20
2023-11-30T08:27:38.014Z,49.40
2023-11-30T08:30:15.936Z,47.80
2023-11-30T08:32:47.297Z,52.20
2023-11-30T08:35:19.707Z,47.60
2023-11-30T08:37:50.555Z,47.80
2023-11-30T08:40:23.764Z,41.30
2023-11-30T08:42:54.936Z,45.70
2023-11-30T08:45:28.771Z,39.60
2023-11-30T08:47:59.678Z,39.90
2023-11-30T08:50:30.993Z,45.90
2023-11-30T08:53:01.760Z,42.40
2023-11-30T08:55:34.098Z,64.90
2023-11-30T08:58:05.766Z,46.10
2023-11-30T09:00:36.779Z,40.10
2023-11-30T09:03:07.607Z,43.00
2023-11-30T09:05:38.382Z,42.70
2023-11-30T09:08:10.495Z,43.20
2023-11-30T09:10:41.395Z,57.30
2023-11-30T09:13:12.580Z,50.20
2023-11-30T09:15:43.676Z,38.90
2023-11-30T09:18:14.641Z,43.00
2023-11-30T09:20:45.469Z,45.80
2023-11-30T09:23:19.063Z,39.80
2023-11-30T09:25:50.089Z,38.20
2023-11-30T09:28:21.302Z,42.20
2023-11-30T09:30:52.253Z,34.40
2023-11-30T09:33:23.170Z,32.20
2023-11-30T09:35:54.125Z,34.60
2023-11-30T09:38:24.839Z,42.10
2023-11-30T09:40:56.578Z,32.90
2023-11-30T09:43:27.382Z,33.00
2023-11-30T09:45:58.187Z,33.20
2023-11-30T09:48:31.915Z,27.50
2023-11-30T09:51:03.462Z,27.80
2023-11-30T09:53:35.796Z,27.70
2023-11-30T09:56:07.396Z,27.70
2023-11-30T09:58:38.797Z,27.50
2023-11-30T10:01:11.555Z,26.80
2023-11-30T10:03:45.140Z,25.50
2023-11-30T10:06:16.421Z,25.40
2023-11-30T10:08:47.422Z,24.90
2023-11-30T10:11:21.144Z,28.20
2023-11-30T10:13:52.021Z,27.50
2023-11-30T10:16:23.310Z,29.80
2023-11-30T10:18:54.435Z,29.70
2023-11-30T10:21:25.429Z,27.60
2023-11-30T10:23:58.143Z,25.50
2023-11-30T10:26:32.395Z,25.50
2023-11-30T10:29:07.996Z,25.80
2023-11-30T10:31:40.445Z,25.90
2023-11-30T10:34:16.840Z,24.70
2023-11-30T10:36:48.381Z,22.80
2023-11-30T10:39:24.566Z,22.70
2023-11-30T10:41:58.846Z,21.20
2023-11-30T10:44:32.054Z,22.80
2023-11-30T10:47:03.496Z,23.60
2023-11-30T10:49:34.616Z,34.20
2023-11-30T10:52:07.880Z,25.10
2023-11-30T10:54:45.273Z,37.10
2023-11-30T10:57:16.629Z,23.90
2023-11-30T10:59:49.219Z,26.80
2023-11-30T11:02:20.193Z,24.10
2023-11-30T11:04:51.064Z,25.70
2023-11-30T11:07:22.652Z,24.80
2023-11-30T11:09:58.636Z,22.20
2023-11-30T11:12:41.428Z,20.60
2023-11-30T11:15:16.744Z,21.30
2023-11-30T11:17:53.352Z,20.90
2023-11-30T11:20:27.073Z,23.40
2023-11-30T11:22:59.335Z,27.20
2023-11-30T11:25:30.199Z,24.20
2023-11-30T11:28:02.003Z,25.50
2023-11-30T11:30:33.546Z,30.00
2023-11-30T11:33:06.378Z,26.30
2023-11-30T11:35:37.192Z,25.50
2023-11-30T11:38:07.976Z,26.10
2023-11-30T11:40:42.366Z,22.00
2023-11-30T11:43:13.118Z,21.50
2023-11-30T11:45:44.298Z,20.00
2023-11-30T11:48:18.467Z,37.40
2023-11-30T11:50:59.520Z,26.70
2023-11-30T11:53:30.353Z,101.20
2023-11-30T11:56:07.843Z,59.90
2023-11-30T11:58:40.433Z,28.30
2023-11-30T12:01:11.260Z,23.70
2023-11-30T12:03:51.599Z,24.50
2023-11-30T12:06:32.089Z,22.10
2023-11-30T12:09:14.257Z,25.60
2023-11-30T12:11:45.394Z,26.10
2023-11-30T12:14:16.832Z,22.30
2023-11-30T12:16:47.725Z,23.40
2023-11-30T12:19:21.143Z,21.80
2023-11-30T12:21:52.284Z,30.80
2023-11-30T12:24:23.621Z,22.60
2023-11-30T12:26:54.512Z,23.40
2023-11-30T12:29:25.365Z,26.20
2023-11-30T12:31:57.038Z,24.40
2023-11-30T12:34:28.071Z,22.70
2023-11-30T12:37:04.562Z,25.70
2023-11-30T12:39:35.650Z,26.60
2023-11-30T12:42:09.101Z,28.50
2023-11-30T12:44:39.827Z,30.00
2023-11-30T12:47:11.976Z,25.20
2023-11-30T12:49:43.575Z,23.80
2023-11-30T12:52:14.486Z,28.00
2023-11-30T12:54:45.720Z,23.40
2023-11-30T12:57:16.560Z,24.60
2023-11-30T12:59:47.817Z,29.30
2023-11-30T13:02:18.800Z,36.20
2023-11-30T13:04:51.076Z,31.60
2023-11-30T13:07:24.730Z,26.40
2023-11-30T13:09:55.587Z,28.90
2023-11-30T13:12:27.946Z,29.10
2023-11-30T13:14:58.982Z,47.70
2023-11-30T13:17:29.782Z,41.40
2023-11-30T13:20:00.533Z,31.40
2023-11-30T13:22:31.333Z,28.60
2023-11-30T13:25:02.772Z,28.20
2023-11-30T13:27:34.328Z,34.00
2023-11-30T13:30:05.530Z,25.60
2023-11-30T13:32:36.670Z,29.40
2023-11-30T13:35:10.344Z,28.00
2023-11-30T13:37:41.313Z,41.10
2023-11-30T13:40:13.286Z,28.20
2023-11-30T13:42:44.277Z,28.90
2023-11-30T13:45:15.381Z,24.90
2023-11-30T13:47:49.028Z,21.60
2023-11-30T13:50:30.461Z,25.40
2023-11-30T13:53:11.696Z,29.50
2023-11-30T13:55:43.790Z,29.70
2023-11-30T13:58:14.573Z,26.70
2023-11-30T14:00:45.426Z,25.20
2023-11-30T14:03:17.653Z,23.70
2023-11-30T14:05:48.844Z,21.30
2023-11-30T14:08:19.678Z,19.90
2023-11-30T14:10:52.396Z,23.40
2023-11-30T14:13:23.375Z,19.60
2023-11-30T14:15:54.293Z,20.10
2023-11-30T14:18:25.330Z,27.70
2023-11-30T14:20:56.302Z,24.40
2023-11-30T14:23:28.230Z,22.10
2023-11-30T14:26:01.305Z,21.90
2023-11-30T14:28:32.423Z,22.50
2023-11-30T14:31:06.618Z,22.30
2023-11-30T14:33:37.450Z,26.00
2023-11-30T14:36:09.482Z,25.40
2023-11-30T14:38:41.744Z,23.00
2023-11-30T14:41:12.843Z,25.50
2023-11-30T14:43:43.850Z,24.30
2023-11-30T14:46:15.370Z,23.70
2023-11-30T14:48:46.214Z,22.00
2023-11-30T14:51:17.080Z,24.50
2023-11-30T14:53:48.567Z,24.80
2023-11-30T14:56:19.343Z,25.20
2023-11-30T14:58:50.166Z,27.50
2023-11-30T15:01:21.354Z,29.10
2023-11-30T15:03:52.425Z,29.50
2023-11-30T15:06:24.699Z,30.10
2023-11-30T15:08:55.459Z,28.00
2023-11-30T15:11:26.363Z,25.00
2023-11-30T15:13:58.216Z,24.70
2023-11-30T15:16:30.177Z,28.70
2023-11-30T15:19:05.217Z,22.00
2023-11-30T15:21:36.219Z,26.60
2023-11-30T15:24:07.585Z,24.40
2023-11-30T15:26:38.365Z,23.50
2023-11-30T15:29:09.218Z,26.90
2023-11-30T15:31:40.077Z,29.70
2023-11-30T15:34:11.214Z,27.00
2023-11-30T15:36:45.367Z,31.20
2023-11-30T15:39:17.503Z,23.90
2023-11-30T15:41:48.573Z,26.40
2023-11-30T15:44:19.397Z,28.30
2023-11-30T15:46:51.113Z,34.90
2023-11-30T15:49:22.062Z,29.80
2023-11-30T15:51:52.841Z,32.00
2023-11-30T15:54:23.635Z,36.10
2023-11-30T15:56:54.561Z,26.10
2023-11-30T15:59:25.337Z,28.50
2023-11-30T16:01:56.356Z,28.50
2023-11-30T16:04:27.267Z,31.40
2023-11-30T16:06:58.119Z,29.20
2023-11-30T16:09:28.950Z,32.00
2023-11-30T16:12:00.180Z,30.10
2023-11-30T16:14:31.058Z,29.20
2023-11-30T16:17:03.226Z,27.00
2023-11-30T16:19:36.835Z,26.00
2023-11-30T16:22:07.792Z,31.30
2023-11-30T16:24:38.568Z,32.00
2023-11-30T16:27:09.993Z,29.60
2023-11-30T16:29:40.858Z,31.10
2023-11-30T16:32:11.938Z,34.20
2023-11-30T16:34:44.054Z,27.30
2023-11-30T16:37:14.928Z,34.10
2023-11-30T16:39:47.186Z,39.40
2023-11-30T16:42:18.044Z,35.40
2023-11-30T16:44:51.803Z,39.40
2023-11-30T16:47:22.580Z,39.50
2023-11-30T16:49:53.323Z,33.00
2023-11-30T16:52:24.126Z,38.90
2023-11-30T16:54:55.056Z,37.80
2023-11-30T16:57:25.926Z,38.10
2023-11-30T16:59:57.464Z,39.90
2023-11-30T17:02:29.200Z,40.80
2023-11-30T17:05:00.177Z,48.50
2023-11-30T17:07:31.033Z,46.40
2023-11-30T17:10:01.924Z,34.50
2023-11-30T17:12:32.871Z,36.90
2023-11-30T17:15:05.027Z,54.20
2023-11-30T17:17:37.195Z,42.70
2023-11-30T17:20:09.731Z,47.40
2023-11-30T17:22:40.530Z,47.90
2023-11-30T17:25:12.216Z,42.90
2023-11-30T17:27:42.989Z,40.60
2023-11-30T17:30:15.331Z,42.70
2023-11-30T17:32:46.247Z,44.40
2023-11-30T17:35:17.810Z,47.90
2023-11-30T17:37:48.886Z,48.60
2023-11-30T17:40:20.137Z,54.80
2023-11-30T17:42:51.169Z,48.40
2023-11-30T17:45:22.174Z,52.70
2023-11-30T17:47:55.028Z,47.80
2023-11-30T17:50:28.529Z,52.10
2023-11-30T17:52:59.451Z,50.50
2023-11-30T17:55:32.047Z,54.90
2023-11-30T17:58:03.410Z,51.80
2023-11-30T18:00:36.064Z,55.90
2023-11-30T18:03:07.133Z,49.80
2023-11-30T18:05:50.054Z,47.90
2023-11-30T18:08:24.308Z,47.60
2023-11-30T18:10:57.057Z,51.10
2023-11-30T18:13:29.965Z,52.90
2023-11-30T18:16:03.690Z,46.60
2023-11-30T18:18:35.163Z,53.30
2023-11-30T18:21:06.639Z,61.20
2023-11-30T18:23:37.851Z,53.70
2023-11-30T18:26:10.979Z,53.10
2023-11-30T18:28:47.779Z,58.30
2023-11-30T18:31:22.534Z,58.30
2023-11-30T18:36:30.251Z,50.10
2023-11-30T18:41:31.052Z,48.20
2023-11-30T18:44:06.096Z,54.50
2023-11-30T18:46:39.842Z,56.40
2023-11-30T18:49:10.959Z,55.10
2023-11-30T18:51:42.044Z,52.10
2023-11-30T18:54:18.718Z,51.40
2023-11-30T18:56:49.776Z,54.90
2023-11-30T18:59:21.926Z,57.00
2023-11-30T19:01:53.040Z,51.80
2023-11-30T19:04:24.118Z,53.30
2023-11-30T19:06:56.003Z,63.70
2023-11-30T19:09:27.242Z,67.30
2023-11-30T19:12:00.205Z,61.60
2023-11-30T19:14:40.746Z,56.10
2023-11-30T19:17:11.721Z,52.30
2023-11-30T19:19:42.636Z,60.20
2023-11-30T19:22:18.351Z,65.30
2023-11-30T19:24:54.177Z,68.70
2023-11-30T19:27:25.131Z,51.90
2023-11-30T19:29:56.259Z,52.80
2023-11-30T19:32:31.359Z,56.10
2023-11-30T19:35:02.928Z,55.80
2023-11-30T19:37:33.904Z,55.30
2023-11-30T19:40:05.427Z,54.90
2023-11-30T19:42:36.401Z,57.80
2023-11-30T19:45:09.012Z,52.30
2023-11-30T19:47:42.256Z,59.90
2023-11-30T19:50:13.475Z,65.40
2023-11-30T19:52:44.287Z,61.20
2023-11-30T19:55:16.088Z,70.60
2023-11-30T19:57:53.995Z,67.70
2023-11-30T20:00:26.169Z,55.50
2023-11-30T20:02:57.861Z,52.90
2023-11-30T20:05:28.830Z,55.00
2023-11-30T20:08:00.561Z,57.60
2023-11-30T20:10:32.281Z,56.40
2023-11-30T20:13:05.123Z,63.90
2023-11-30T20:15:36.276Z,59.10
2023-11-30T20:18:09.917Z,53.70
2023-11-30T20:20:40.885Z,64.20
2023-11-30T20:23:11.779Z,60.30
2023-11-30T20:25:42.789Z,63.50
2023-11-30T20:28:13.935Z,69.00
2023-11-30T20:30:47.763Z,65.10
2023-11-30T20:33:18.713Z,62.80
2023-11-30T20:35:49.755Z,65.00
2023-11-30T20:38:20.624Z,67.10
2023-11-30T20:40:52.150Z,68.40
2023-11-30T20:43:27.417Z,70.50
2023-11-30T20:45:59.051Z,65.20
2023-11-30T20:48:30.188Z,74.80
2023-11-30T20:51:01.347Z,75.50
2023-11-30T20:53:32.174Z,73.20
2023-11-30T20:56:03.976Z,69.20
2023-11-30T20:58:40.049Z,74.30
2023-11-30T21:01:13.065Z,73.20
2023-11-30T21:11:59.617Z,69.50
2023-11-30T21:14:31.224Z,66.80
2023-11-30T21:17:02.785Z,75.20
2023-11-30T21:19:34.241Z,72.10
2023-11-30T21:22:06.143Z,71.80
2023-11-30T21:24:39.967Z,75.10
2023-11-30T21:27:12.076Z,70.00
2023-11-30T21:29:43.611Z,76.50
2023-11-30T21:32:15.057Z,76.90
2023-11-30T21:34:46.942Z,72.40
2023-11-30T21:37:18.281Z,67.30
2023-11-30T21:39:49.846Z,68.80
2023-11-30T21:42:24.753Z,79.50
2023-11-30T21:44:56.500Z,81.00
2023-11-30T21:47:28.239Z,69.90
2023-11-30T21:49:59.755Z,72.70
2023-11-30T21:52:31.281Z,71.20
2023-11-30T21:55:08.139Z,72.10
2023-11-30T21:57:39.727Z,74.30
2023-11-30T22:00:13.635Z,76.00
2023-11-30T22:02:46.403Z,69.70
2023-11-30T22:05:26.786Z,74.70
2023-11-30T22:08:04.442Z,75.50
2023-11-30T22:10:35.745Z,67.90
2023-11-30T22:13:07.047Z,77.40
2023-11-30T22:15:38.539Z,75.20
2023-11-30T22:18:09.936Z,73.80
2023-11-30T22:20:44.940Z,71.10
2023-11-30T22:23:16.366Z,66.30
2023-11-30T22:25:53.341Z,67.50
2023-11-30T22:28:27.470Z,75.60
2023-11-30T22:30:59.015Z,72.20
2023-11-30T22:33:31.354Z,77.60
2023-11-30T22:36:02.968Z,72.30
2023-11-30T22:38:41.183Z,69.60
2023-11-30T22:41:17.358Z,71.50
2023-11-30T22:43:48.607Z,70.40
2023-11-30T22:46:20.899Z,63.30
2023-11-30T22:48:52.661Z,69.80
2023-11-30T22:51:24.920Z,64.90
2023-11-30T22:53:56.214Z,64.60
2023-11-30T22:56:30.284Z,65.40
2023-11-30T22:59:01.641Z,64.20
2023-11-30T23:01:33.045Z,61.70
2023-11-30T23:04:04.762Z,68.00
2023-11-30T23:06:36.373Z,70.20
2023-11-30T23:09:08.003Z,64.70
2023-11-30T23:11:39.287Z,67.20
2023-11-30T23:14:11.259Z,59.30
2023-11-30T23:16:42.537Z,64.10
2023-11-30T23:19:14.914Z,65.00
2023-11-30T23:21:46.619Z,65.10
2023-11-30T23:24:25.744Z,63.20
2023-11-30T23:27:00.544Z,67.00
2023-11-30T23:29:36.995Z,69.00
2023-11-30T23:32:09.845Z,65.50
2023-11-30T23:34:41.500Z,60.00
2023-11-30T23:37:13.016Z,56.80
2023-11-30T23:39:44.674Z,64.50
2023-11-30T23:42:16.015Z,65.70
2023-11-30T23:44:47.691Z,65.70
2023-11-30T23:47:18.970Z,65.40
2023-11-30T23:49:50.198Z,67.50
2023-11-30T23:52:21.492Z,73.90
2023-11-30T23:54:52.786Z,69.90
2023-11-30T23:57:24.103Z,79.50
2023-11-30T23:59:55.488Z,68.10
